sensor_id;sensor_type;location;lat;lon;timestamp;P1;durP1;ratioP1;P2;durP2;ratioP2
5333;SDS011;2689;50.954;7.116;2022-12-16T00:01:04;38.85;;;18.63;;
5333;SDS011;2689;50.954;7.116;2022-12-16T00:03:32;31.80;;;17.70;;
5333;SDS011;2689;50.954;7.116;2022-12-16T00:05:59;25.88;;;15.77;;
5333;SDS011;2689;50.954;7.116;2022-12-16T00:08:30;31.90;;;17.33;;
5333;SDS011;2689;50.954;7.116;2022-12-16T00:10:58;35.50;;;17.88;;
5333;SDS011;2689;50.954;7.116;2022-12-16T00:13:26;34.80;;;18.65;;
5333;SDS011;2689;50.954;7.116;2022-12-16T00:15:54;39.45;;;18.00;;
5333;SDS011;2689;50.954;7.116;2022-12-16T00:18:22;33.55;;;16.52;;
5333;SDS011;2689;50.954;7.116;2022-12-16T00:20:50;29.92;;;15.65;;
5333;SDS011;2689;50.954;7.116;2022-12-16T00:23:18;27.92;;;14.93;;
5333;SDS011;2689;50.954;7.116;2022-12-16T00:25:47;29.73;;;17.00;;
5333;SDS011;2689;50.954;7.116;2022-12-16T00:28:14;29.55;;;15.55;;
5333;SDS011;2689;50.954;7.116;2022-12-16T00:30:46;33.35;;;16.02;;
5333;SDS011;2689;50.954;7.116;2022-12-16T00:33:14;29.98;;;15.52;;
5333;SDS011;2689;50.954;7.116;2022-12-16T00:35:41;28.33;;;14.60;;
5333;SDS011;2689;50.954;7.116;2022-12-16T00:38:09;32.88;;;15.82;;
5333;SDS011;2689;50.954;7.116;2022-12-16T00:40:35;35.17;;;16.70;;
5333;SDS011;2689;50.954;7.116;2022-12-16T00:43:04;35.15;;;17.35;;
5333;SDS011;2689;50.954;7.116;2022-12-16T00:45:31;29.10;;;14.77;;
5333;SDS011;2689;50.954;7.116;2022-12-16T00:47:58;34.20;;;17.55;;
5333;SDS011;2689;50.954;7.116;2022-12-16T00:50:25;30.45;;;15.38;;
5333;SDS011;2689;50.954;7.116;2022-12-16T00:52:59;25.58;;;15.27;;
5333;SDS011;2689;50.954;7.116;2022-12-16T00:55:33;27.90;;;15.63;;
5333;SDS011;2689;50.954;7.116;2022-12-16T00:58:07;30.27;;;14.40;;
5333;SDS011;2689;50.954;7.116;2022-12-16T01:00:35;33.08;;;16.45;;
5333;SDS011;2689;50.954;7.116;2022-12-16T01:03:05;24.83;;;15.07;;
5333;SDS011;2689;50.954;7.116;2022-12-16T01:05:42;30.73;;;14.82;;
5333;SDS011;2689;50.954;7.116;2022-12-16T01:08:10;32.47;;;14.95;;
5333;SDS011;2689;50.954;7.116;2022-12-16T01:10:37;28.83;;;13.55;;
5333;SDS011;2689;50.954;7.116;2022-12-16T01:13:05;33.25;;;17.65;;
5333;SDS011;2689;50.954;7.116;2022-12-16T01:15:37;31.10;;;16.48;;
5333;SDS011;2689;50.954;7.116;2022-12-16T01:18:07;27.15;;;13.15;;
5333;SDS011;2689;50.954;7.116;2022-12-16T01:20:35;30.33;;;15.20;;
5333;SDS011;2689;50.954;7.116;2022-12-16T01:23:02;27.50;;;15.02;;
5333;SDS011;2689;50.954;7.116;2022-12-16T01:25:34;29.25;;;15.52;;
5333;SDS011;2689;50.954;7.116;2022-12-16T01:28:00;27.42;;;14.75;;
5333;SDS011;2689;50.954;7.116;2022-12-16T01:30:29;28.23;;;15.77;;
5333;SDS011;2689;50.954;7.116;2022-12-16T01:32:56;24.42;;;13.43;;
5333;SDS011;2689;50.954;7.116;2022-12-16T01:35:23;31.08;;;16.10;;
5333;SDS011;2689;50.954;7.116;2022-12-16T01:37:50;31.73;;;15.70;;
5333;SDS011;2689;50.954;7.116;2022-12-16T01:40:18;25.73;;;13.60;;
5333;SDS011;2689;50.954;7.116;2022-12-16T01:42:47;26.02;;;14.60;;
5333;SDS011;2689;50.954;7.116;2022-12-16T01:45:28;25.23;;;14.32;;
5333;SDS011;2689;50.954;7.116;2022-12-16T01:47:59;25.73;;;14.80;;
5333;SDS011;2689;50.954;7.116;2022-12-16T01:50:31;30.25;;;14.85;;
5333;SDS011;2689;50.954;7.116;2022-12-16T01:52:59;32.05;;;15.38;;
5333;SDS011;2689;50.954;7.116;2022-12-16T01:55:31;26.50;;;14.85;;
5333;SDS011;2689;50.954;7.116;2022-12-16T01:58:01;26.30;;;13.75;;
5333;SDS011;2689;50.954;7.116;2022-12-16T02:00:34;30.25;;;16.27;;
5333;SDS011;2689;50.954;7.116;2022-12-16T02:03:02;31.45;;;16.20;;
5333;SDS011;2689;50.954;7.116;2022-12-16T02:05:30;39.55;;;15.00;;
5333;SDS011;2689;50.954;7.116;2022-12-16T02:08:01;29.27;;;12.68;;
5333;SDS011;2689;50.954;7.116;2022-12-16T02:10:41;29.17;;;14.35;;
5333;SDS011;2689;50.954;7.116;2022-12-16T02:13:38;28.27;;;14.15;;
5333;SDS011;2689;50.954;7.116;2022-12-16T02:16:25;29.42;;;15.43;;
5333;SDS011;2689;50.954;7.116;2022-12-16T02:19:03;23.60;;;12.52;;
5333;SDS011;2689;50.954;7.116;2022-12-16T02:21:45;27.45;;;12.85;;
5333;SDS011;2689;50.954;7.116;2022-12-16T02:27:35;31.13;;;14.00;;
5333;SDS011;2689;50.954;7.116;2022-12-16T02:33:41;25.13;;;14.13;;
5333;SDS011;2689;50.954;7.116;2022-12-16T02:36:17;30.15;;;14.90;;
5333;SDS011;2689;50.954;7.116;2022-12-16T02:38:54;25.75;;;13.10;;
5333;SDS011;2689;50.954;7.116;2022-12-16T02:41:24;27.90;;;12.18;;
5333;SDS011;2689;50.954;7.116;2022-12-16T02:44:00;32.60;;;15.30;;
5333;SDS011;2689;50.954;7.116;2022-12-16T02:46:32;23.98;;;12.88;;
5333;SDS011;2689;50.954;7.116;2022-12-16T02:49:04;28.77;;;13.85;;
5333;SDS011;2689;50.954;7.116;2022-12-16T02:51:32;30.25;;;15.32;;
5333;SDS011;2689;50.954;7.116;2022-12-16T02:54:03;29.58;;;14.85;;
5333;SDS011;2689;50.954;7.116;2022-12-16T02:56:36;28.30;;;15.10;;
5333;SDS011;2689;50.954;7.116;2022-12-16T02:59:15;25.77;;;13.25;;
5333;SDS011;2689;50.954;7.116;2022-12-16T03:01:51;28.20;;;15.63;;
5333;SDS011;2689;50.954;7.116;2022-12-16T03:04:25;25.05;;;14.10;;
5333;SDS011;2689;50.954;7.116;2022-12-16T03:06:56;24.63;;;13.75;;
5333;SDS011;2689;50.954;7.116;2022-12-16T03:09:26;30.80;;;15.05;;
5333;SDS011;2689;50.954;7.116;2022-12-16T03:11:57;31.92;;;14.23;;
5333;SDS011;2689;50.954;7.116;2022-12-16T03:14:28;24.13;;;13.15;;
5333;SDS011;2689;50.954;7.116;2022-12-16T03:17:00;24.70;;;13.70;;
5333;SDS011;2689;50.954;7.116;2022-12-16T03:19:28;24.73;;;13.50;;
5333;SDS011;2689;50.954;7.116;2022-12-16T03:21:59;27.85;;;15.02;;
5333;SDS011;2689;50.954;7.116;2022-12-16T03:24:29;30.33;;;13.80;;
5333;SDS011;2689;50.954;7.116;2022-12-16T03:26:59;25.00;;;13.32;;
5333;SDS011;2689;50.954;7.116;2022-12-16T03:29:34;30.52;;;14.48;;
5333;SDS011;2689;50.954;7.116;2022-12-16T03:32:08;27.42;;;12.10;;
5333;SDS011;2689;50.954;7.116;2022-12-16T03:34:40;26.60;;;13.23;;
5333;SDS011;2689;50.954;7.116;2022-12-16T03:37:10;34.80;;;15.23;;
5333;SDS011;2689;50.954;7.116;2022-12-16T03:39:39;28.90;;;14.45;;
5333;SDS011;2689;50.954;7.116;2022-12-16T03:42:09;23.77;;;13.90;;
5333;SDS011;2689;50.954;7.116;2022-12-16T03:44:38;29.40;;;14.32;;
5333;SDS011;2689;50.954;7.116;2022-12-16T03:47:05;26.40;;;13.23;;
5333;SDS011;2689;50.954;7.116;2022-12-16T03:49:33;26.42;;;13.65;;
5333;SDS011;2689;50.954;7.116;2022-12-16T03:52:00;25.92;;;14.23;;
5333;SDS011;2689;50.954;7.116;2022-12-16T03:54:27;27.42;;;15.05;;
5333;SDS011;2689;50.954;7.116;2022-12-16T03:56:54;30.05;;;13.45;;
5333;SDS011;2689;50.954;7.116;2022-12-16T03:59:20;24.92;;;14.48;;
5333;SDS011;2689;50.954;7.116;2022-12-16T04:01:47;22.20;;;13.50;;
5333;SDS011;2689;50.954;7.116;2022-12-16T04:04:15;25.67;;;12.93;;
5333;SDS011;2689;50.954;7.116;2022-12-16T04:06:44;33.95;;;14.85;;
5333;SDS011;2689;50.954;7.116;2022-12-16T04:09:30;26.70;;;15.13;;
5333;SDS011;2689;50.954;7.116;2022-12-16T04:11:57;27.58;;;14.70;;
5333;SDS011;2689;50.954;7.116;2022-12-16T04:14:50;25.95;;;14.30;;
5333;SDS011;2689;50.954;7.116;2022-12-16T04:17:34;28.20;;;14.13;;
5333;SDS011;2689;50.954;7.116;2022-12-16T04:20:19;31.45;;;15.10;;
5333;SDS011;2689;50.954;7.116;2022-12-16T04:23:10;26.13;;;13.30;;
5333;SDS011;2689;50.954;7.116;2022-12-16T04:25:54;26.77;;;14.43;;
5333;SDS011;2689;50.954;7.116;2022-12-16T04:28:21;23.88;;;13.40;;
5333;SDS011;2689;50.954;7.116;2022-12-16T04:30:48;26.33;;;14.95;;
5333;SDS011;2689;50.954;7.116;2022-12-16T04:33:15;31.90;;;16.35;;
5333;SDS011;2689;50.954;7.116;2022-12-16T04:36:00;27.25;;;13.38;;
5333;SDS011;2689;50.954;7.116;2022-12-16T04:38:46;22.05;;;13.20;;
5333;SDS011;2689;50.954;7.116;2022-12-16T04:41:31;26.42;;;14.13;;
5333;SDS011;2689;50.954;7.116;2022-12-16T04:44:15;30.20;;;13.55;;
5333;SDS011;2689;50.954;7.116;2022-12-16T04:47:14;24.13;;;13.23;;
5333;SDS011;2689;50.954;7.116;2022-12-16T04:49:58;28.02;;;13.82;;
5333;SDS011;2689;50.954;7.116;2022-12-16T04:52:42;27.65;;;13.20;;
5333;SDS011;2689;50.954;7.116;2022-12-16T04:55:28;30.33;;;15.23;;
5333;SDS011;2689;50.954;7.116;2022-12-16T04:58:12;25.40;;;13.63;;
5333;SDS011;2689;50.954;7.116;2022-12-16T05:00:57;29.40;;;14.15;;
5333;SDS011;2689;50.954;7.116;2022-12-16T05:03:42;27.17;;;14.35;;
5333;SDS011;2689;50.954;7.116;2022-12-16T05:06:26;27.25;;;14.30;;
5333;SDS011;2689;50.954;7.116;2022-12-16T05:09:06;34.83;;;15.30;;
5333;SDS011;2689;50.954;7.116;2022-12-16T05:11:52;28.60;;;14.55;;
5333;SDS011;2689;50.954;7.116;2022-12-16T05:14:36;26.27;;;15.25;;
5333;SDS011;2689;50.954;7.116;2022-12-16T05:17:20;28.98;;;13.05;;
5333;SDS011;2689;50.954;7.116;2022-12-16T05:20:05;29.63;;;13.45;;
5333;SDS011;2689;50.954;7.116;2022-12-16T05:22:50;23.17;;;12.50;;
5333;SDS011;2689;50.954;7.116;2022-12-16T05:25:37;24.00;;;12.63;;
5333;SDS011;2689;50.954;7.116;2022-12-16T05:28:23;21.08;;;12.70;;
5333;SDS011;2689;50.954;7.116;2022-12-16T05:31:07;29.73;;;13.55;;
5333;SDS011;2689;50.954;7.116;2022-12-16T05:34:00;23.23;;;14.00;;
5333;SDS011;2689;50.954;7.116;2022-12-16T05:36:44;27.20;;;14.38;;
5333;SDS011;2689;50.954;7.116;2022-12-16T05:39:28;22.55;;;13.25;;
5333;SDS011;2689;50.954;7.116;2022-12-16T05:42:12;27.83;;;13.52;;
5333;SDS011;2689;50.954;7.116;2022-12-16T05:44:58;22.20;;;13.90;;
5333;SDS011;2689;50.954;7.116;2022-12-16T05:47:42;26.77;;;14.23;;
5333;SDS011;2689;50.954;7.116;2022-12-16T05:50:30;25.45;;;13.50;;
5333;SDS011;2689;50.954;7.116;2022-12-16T05:53:16;21.33;;;13.35;;
5333;SDS011;2689;50.954;7.116;2022-12-16T05:56:00;26.20;;;13.93;;
5333;SDS011;2689;50.954;7.116;2022-12-16T05:58:44;27.80;;;13.10;;
5333;SDS011;2689;50.954;7.116;2022-12-16T06:01:30;30.25;;;16.10;;
5333;SDS011;2689;50.954;7.116;2022-12-16T06:04:14;29.17;;;15.02;;
5333;SDS011;2689;50.954;7.116;2022-12-16T06:06:59;24.58;;;14.30;;
5333;SDS011;2689;50.954;7.116;2022-12-16T06:10:01;26.13;;;14.45;;
5333;SDS011;2689;50.954;7.116;2022-12-16T06:12:46;23.65;;;13.25;;
5333;SDS011;2689;50.954;7.116;2022-12-16T06:15:30;27.65;;;15.10;;
5333;SDS011;2689;50.954;7.116;2022-12-16T06:18:15;24.00;;;13.57;;
5333;SDS011;2689;50.954;7.116;2022-12-16T06:21:00;29.80;;;14.45;;
5333;SDS011;2689;50.954;7.116;2022-12-16T06:23:45;26.75;;;13.73;;
5333;SDS011;2689;50.954;7.116;2022-12-16T06:26:29;20.42;;;11.85;;
5333;SDS011;2689;50.954;7.116;2022-12-16T06:29:13;26.33;;;13.15;;
5333;SDS011;2689;50.954;7.116;2022-12-16T06:31:57;30.80;;;15.68;;
5333;SDS011;2689;50.954;7.116;2022-12-16T06:34:43;26.20;;;14.40;;
5333;SDS011;2689;50.954;7.116;2022-12-16T06:37:38;29.58;;;14.90;;
5333;SDS011;2689;50.954;7.116;2022-12-16T06:40:23;21.02;;;12.77;;
5333;SDS011;2689;50.954;7.116;2022-12-16T06:43:07;26.23;;;14.25;;
5333;SDS011;2689;50.954;7.116;2022-12-16T06:45:51;27.90;;;14.93;;
5333;SDS011;2689;50.954;7.116;2022-12-16T06:48:36;20.92;;;11.43;;
5333;SDS011;2689;50.954;7.116;2022-12-16T06:51:27;17.83;;;9.75;;
5333;SDS011;2689;50.954;7.116;2022-12-16T06:54:11;35.03;;;13.55;;
5333;SDS011;2689;50.954;7.116;2022-12-16T06:56:57;26.10;;;13.60;;
5333;SDS011;2689;50.954;7.116;2022-12-16T06:59:41;23.55;;;13.05;;
5333;SDS011;2689;50.954;7.116;2022-12-16T07:02:25;22.83;;;12.40;;
5333;SDS011;2689;50.954;7.116;2022-12-16T07:05:10;23.67;;;12.50;;
5333;SDS011;2689;50.954;7.116;2022-12-16T07:07:56;23.95;;;13.07;;
5333;SDS011;2689;50.954;7.116;2022-12-16T07:10:40;22.73;;;12.48;;
5333;SDS011;2689;50.954;7.116;2022-12-16T07:13:24;23.08;;;13.52;;
5333;SDS011;2689;50.954;7.116;2022-12-16T07:16:09;23.20;;;12.55;;
5333;SDS011;2689;50.954;7.116;2022-12-16T07:18:53;26.73;;;15.20;;
5333;SDS011;2689;50.954;7.116;2022-12-16T07:21:38;27.55;;;13.30;;
5333;SDS011;2689;50.954;7.116;2022-12-16T07:30:42;25.45;;;14.00;;
5333;SDS011;2689;50.954;7.116;2022-12-16T07:33:27;32.30;;;12.73;;
5333;SDS011;2689;50.954;7.116;2022-12-16T07:36:11;26.98;;;15.00;;
5333;SDS011;2689;50.954;7.116;2022-12-16T07:38:55;23.83;;;14.40;;
5333;SDS011;2689;50.954;7.116;2022-12-16T07:41:39;29.00;;;15.02;;
5333;SDS011;2689;50.954;7.116;2022-12-16T07:44:25;31.25;;;14.63;;
5333;SDS011;2689;50.954;7.116;2022-12-16T07:47:09;29.55;;;14.63;;
5333;SDS011;2689;50.954;7.116;2022-12-16T07:49:53;32.67;;;15.60;;
5333;SDS011;2689;50.954;7.116;2022-12-16T07:52:37;30.10;;;16.27;;
5333;SDS011;2689;50.954;7.116;2022-12-16T07:55:22;31.13;;;15.65;;
5333;SDS011;2689;50.954;7.116;2022-12-16T07:58:06;32.20;;;16.15;;
5333;SDS011;2689;50.954;7.116;2022-12-16T08:00:53;23.55;;;13.07;;
5333;SDS011;2689;50.954;7.116;2022-12-16T08:03:37;28.00;;;15.65;;
5333;SDS011;2689;50.954;7.116;2022-12-16T08:06:22;34.67;;;16.10;;
5333;SDS011;2689;50.954;7.116;2022-12-16T08:09:06;27.98;;;16.20;;
5333;SDS011;2689;50.954;7.116;2022-12-16T08:11:50;23.17;;;14.63;;
5333;SDS011;2689;50.954;7.116;2022-12-16T08:14:34;30.17;;;14.10;;
5333;SDS011;2689;50.954;7.116;2022-12-16T08:17:20;23.10;;;13.50;;
5333;SDS011;2689;50.954;7.116;2022-12-16T08:20:04;26.52;;;13.80;;
5333;SDS011;2689;50.954;7.116;2022-12-16T08:22:49;32.67;;;15.30;;
5333;SDS011;2689;50.954;7.116;2022-12-16T08:25:34;27.70;;;15.40;;
5333;SDS011;2689;50.954;7.116;2022-12-16T08:28:18;31.33;;;13.15;;
5333;SDS011;2689;50.954;7.116;2022-12-16T08:31:02;19.73;;;11.75;;
5333;SDS011;2689;50.954;7.116;2022-12-16T08:33:51;21.10;;;12.85;;
5333;SDS011;2689;50.954;7.116;2022-12-16T08:36:36;26.75;;;11.75;;
5333;SDS011;2689;50.954;7.116;2022-12-16T08:39:20;24.23;;;12.73;;
5333;SDS011;2689;50.954;7.116;2022-12-16T08:42:05;30.08;;;14.48;;
5333;SDS011;2689;50.954;7.116;2022-12-16T08:44:49;22.30;;;14.70;;
5333;SDS011;2689;50.954;7.116;2022-12-16T08:47:33;29.23;;;14.80;;
5333;SDS011;2689;50.954;7.116;2022-12-16T08:50:19;27.98;;;14.00;;
5333;SDS011;2689;50.954;7.116;2022-12-16T08:53:03;30.67;;;16.42;;
5333;SDS011;2689;50.954;7.116;2022-12-16T08:55:47;35.03;;;16.88;;
5333;SDS011;2689;50.954;7.116;2022-12-16T08:58:31;34.13;;;17.38;;
5333;SDS011;2689;50.954;7.116;2022-12-16T09:01:16;30.13;;;17.40;;
5333;SDS011;2689;50.954;7.116;2022-12-16T09:04:02;31.58;;;18.35;;
5333;SDS011;2689;50.954;7.116;2022-12-16T09:06:48;33.10;;;16.45;;
5333;SDS011;2689;50.954;7.116;2022-12-16T09:09:32;34.70;;;17.25;;
5333;SDS011;2689;50.954;7.116;2022-12-16T09:12:16;32.45;;;18.63;;
5333;SDS011;2689;50.954;7.116;2022-12-16T09:15:00;35.67;;;19.15;;
5333;SDS011;2689;50.954;7.116;2022-12-16T09:17:44;25.40;;;14.50;;
5333;SDS011;2689;50.954;7.116;2022-12-16T09:20:35;33.70;;;18.17;;
5333;SDS011;2689;50.954;7.116;2022-12-16T09:23:21;35.45;;;16.58;;
5333;SDS011;2689;50.954;7.116;2022-12-16T09:26:05;35.30;;;18.35;;
5333;SDS011;2689;50.954;7.116;2022-12-16T09:28:49;34.13;;;17.83;;
5333;SDS011;2689;50.954;7.116;2022-12-16T09:31:30;28.65;;;16.65;;
5333;SDS011;2689;50.954;7.116;2022-12-16T09:34:14;30.52;;;17.83;;
5333;SDS011;2689;50.954;7.116;2022-12-16T09:36:58;29.65;;;16.92;;
5333;SDS011;2689;50.954;7.116;2022-12-16T09:39:44;27.42;;;16.13;;
5333;SDS011;2689;50.954;7.116;2022-12-16T09:42:29;34.95;;;16.63;;
5333;SDS011;2689;50.954;7.116;2022-12-16T09:45:22;26.77;;;13.18;;
5333;SDS011;2689;50.954;7.116;2022-12-16T09:48:17;31.90;;;15.60;;
5333;SDS011;2689;50.954;7.116;2022-12-16T09:51:06;26.92;;;15.52;;
5333;SDS011;2689;50.954;7.116;2022-12-16T09:53:53;28.45;;;15.48;;
5333;SDS011;2689;50.954;7.116;2022-12-16T09:56:40;26.35;;;15.70;;
5333;SDS011;2689;50.954;7.116;2022-12-16T09:59:27;26.77;;;15.20;;
5333;SDS011;2689;50.954;7.116;2022-12-16T10:02:16;25.85;;;14.30;;
5333;SDS011;2689;50.954;7.116;2022-12-16T10:05:08;24.23;;;14.77;;
5333;SDS011;2689;50.954;7.116;2022-12-16T10:07:56;28.02;;;15.02;;
5333;SDS011;2689;50.954;7.116;2022-12-16T10:10:49;29.65;;;18.10;;
5333;SDS011;2689;50.954;7.116;2022-12-16T10:13:43;31.23;;;16.67;;
5333;SDS011;2689;50.954;7.116;2022-12-16T10:16:42;28.48;;;16.50;;
5333;SDS011;2689;50.954;7.116;2022-12-16T10:19:34;29.42;;;15.15;;
5333;SDS011;2689;50.954;7.116;2022-12-16T10:22:26;29.88;;;16.27;;
5333;SDS011;2689;50.954;7.116;2022-12-16T10:25:18;30.50;;;18.17;;
5333;SDS011;2689;50.954;7.116;2022-12-16T10:28:09;25.83;;;16.40;;
5333;SDS011;2689;50.954;7.116;2022-12-16T10:31:00;26.80;;;12.00;;
5333;SDS011;2689;50.954;7.116;2022-12-16T10:34:00;29.05;;;15.60;;
5333;SDS011;2689;50.954;7.116;2022-12-16T10:36:46;23.27;;;13.75;;
5333;SDS011;2689;50.954;7.116;2022-12-16T10:39:32;24.23;;;14.43;;
5333;SDS011;2689;50.954;7.116;2022-12-16T10:42:19;34.78;;;18.13;;
5333;SDS011;2689;50.954;7.116;2022-12-16T10:45:12;37.58;;;19.52;;
5333;SDS011;2689;50.954;7.116;2022-12-16T10:48:03;25.48;;;15.73;;
5333;SDS011;2689;50.954;7.116;2022-12-16T10:50:47;29.52;;;15.80;;
5333;SDS011;2689;50.954;7.116;2022-12-16T10:53:32;31.52;;;12.15;;
5333;SDS011;2689;50.954;7.116;2022-12-16T10:56:23;28.40;;;16.67;;
5333;SDS011;2689;50.954;7.116;2022-12-16T10:59:19;29.58;;;12.43;;
5333;SDS011;2689;50.954;7.116;2022-12-16T11:02:04;26.80;;;15.23;;
5333;SDS011;2689;50.954;7.116;2022-12-16T11:05:01;30.77;;;17.38;;
5333;SDS011;2689;50.954;7.116;2022-12-16T11:08:23;26.70;;;16.50;;
5333;SDS011;2689;50.954;7.116;2022-12-16T11:11:17;28.92;;;17.73;;
5333;SDS011;2689;50.954;7.116;2022-12-16T11:14:12;29.65;;;17.60;;
5333;SDS011;2689;50.954;7.116;2022-12-16T11:17:13;28.35;;;16.00;;
5333;SDS011;2689;50.954;7.116;2022-12-16T11:20:09;31.77;;;17.50;;
5333;SDS011;2689;50.954;7.116;2022-12-16T11:23:05;25.95;;;17.52;;
5333;SDS011;2689;50.954;7.116;2022-12-16T11:26:08;35.03;;;16.20;;
5333;SDS011;2689;50.954;7.116;2022-12-16T11:29:05;29.60;;;18.20;;
5333;SDS011;2689;50.954;7.116;2022-12-16T11:31:55;23.25;;;14.20;;
5333;SDS011;2689;50.954;7.116;2022-12-16T11:34:47;36.15;;;18.80;;
5333;SDS011;2689;50.954;7.116;2022-12-16T11:37:35;29.05;;;16.90;;
5333;SDS011;2689;50.954;7.116;2022-12-16T11:40:22;25.67;;;10.55;;
5333;SDS011;2689;50.954;7.116;2022-12-16T11:43:08;31.77;;;19.02;;
5333;SDS011;2689;50.954;7.116;2022-12-16T11:45:55;29.23;;;17.38;;
5333;SDS011;2689;50.954;7.116;2022-12-16T11:48:43;35.13;;;19.20;;
5333;SDS011;2689;50.954;7.116;2022-12-16T11:51:32;28.15;;;16.73;;
5333;SDS011;2689;50.954;7.116;2022-12-16T11:54:25;32.10;;;17.67;;
5333;SDS011;2689;50.954;7.116;2022-12-16T11:57:15;33.65;;;19.48;;
5333;SDS011;2689;50.954;7.116;2022-12-16T12:00:03;35.63;;;19.67;;
5333;SDS011;2689;50.954;7.116;2022-12-16T12:02:50;34.47;;;17.98;;
5333;SDS011;2689;50.954;7.116;2022-12-16T12:05:40;34.33;;;19.77;;
5333;SDS011;2689;50.954;7.116;2022-12-16T12:08:28;34.58;;;20.25;;
5333;SDS011;2689;50.954;7.116;2022-12-16T12:11:20;35.15;;;20.15;;
5333;SDS011;2689;50.954;7.116;2022-12-16T12:14:10;33.67;;;18.38;;
5333;SDS011;2689;50.954;7.116;2022-12-16T12:17:06;29.30;;;18.45;;
5333;SDS011;2689;50.954;7.116;2022-12-16T12:20:01;32.38;;;18.50;;
5333;SDS011;2689;50.954;7.116;2022-12-16T12:23:03;37.40;;;18.75;;
5333;SDS011;2689;50.954;7.116;2022-12-16T12:25:51;32.90;;;19.83;;
5333;SDS011;2689;50.954;7.116;2022-12-16T12:28:46;46.17;;;22.92;;
5333;SDS011;2689;50.954;7.116;2022-12-16T12:31:56;32.83;;;19.70;;
5333;SDS011;2689;50.954;7.116;2022-12-16T12:34:47;36.40;;;18.98;;
5333;SDS011;2689;50.954;7.116;2022-12-16T12:37:41;31.30;;;20.45;;
5333;SDS011;2689;50.954;7.116;2022-12-16T12:40:40;30.30;;;18.52;;
5333;SDS011;2689;50.954;7.116;2022-12-16T12:43:35;42.63;;;21.77;;
5333;SDS011;2689;50.954;7.116;2022-12-16T12:46:40;38.95;;;22.13;;
5333;SDS011;2689;50.954;7.116;2022-12-16T12:49:32;40.13;;;22.25;;
5333;SDS011;2689;50.954;7.116;2022-12-16T12:52:24;35.53;;;19.08;;
5333;SDS011;2689;50.954;7.116;2022-12-16T12:55:20;37.78;;;20.02;;
5333;SDS011;2689;50.954;7.116;2022-12-16T12:58:13;44.72;;;22.40;;
5333;SDS011;2689;50.954;7.116;2022-12-16T13:01:00;38.25;;;23.77;;
5333;SDS011;2689;50.954;7.116;2022-12-16T13:03:48;38.10;;;22.25;;
5333;SDS011;2689;50.954;7.116;2022-12-16T13:06:38;43.80;;;25.02;;
5333;SDS011;2689;50.954;7.116;2022-12-16T13:09:24;38.53;;;22.73;;
5333;SDS011;2689;50.954;7.116;2022-12-16T13:12:19;39.42;;;23.58;;
5333;SDS011;2689;50.954;7.116;2022-12-16T13:15:06;36.10;;;20.95;;
5333;SDS011;2689;50.954;7.116;2022-12-16T13:21:35;47.13;;;23.75;;
5333;SDS011;2689;50.954;7.116;2022-12-16T13:24:29;41.03;;;23.50;;
5333;SDS011;2689;50.954;7.116;2022-12-16T13:27:43;38.72;;;21.08;;
5333;SDS011;2689;50.954;7.116;2022-12-16T13:30:31;42.53;;;24.85;;
5333;SDS011;2689;50.954;7.116;2022-12-16T13:33:21;40.72;;;24.20;;
5333;SDS011;2689;50.954;7.116;2022-12-16T13:36:11;44.10;;;23.80;;
5333;SDS011;2689;50.954;7.116;2022-12-16T13:38:58;45.15;;;24.65;;
5333;SDS011;2689;50.954;7.116;2022-12-16T13:41:58;51.60;;;25.20;;
5333;SDS011;2689;50.954;7.116;2022-12-16T13:44:57;49.30;;;26.75;;
5333;SDS011;2689;50.954;7.116;2022-12-16T13:47:58;46.67;;;27.77;;
5333;SDS011;2689;50.954;7.116;2022-12-16T13:50:44;60.75;;;26.58;;
5333;SDS011;2689;50.954;7.116;2022-12-16T13:53:30;49.53;;;26.95;;
5333;SDS011;2689;50.954;7.116;2022-12-16T13:56:19;49.78;;;26.27;;
5333;SDS011;2689;50.954;7.116;2022-12-16T13:59:13;37.53;;;20.08;;
5333;SDS011;2689;50.954;7.116;2022-12-16T14:02:11;47.92;;;27.08;;
5333;SDS011;2689;50.954;7.116;2022-12-16T14:05:02;48.70;;;26.08;;
5333;SDS011;2689;50.954;7.116;2022-12-16T14:07:56;56.78;;;25.70;;
5333;SDS011;2689;50.954;7.116;2022-12-16T14:10:53;61.83;;;33.00;;
5333;SDS011;2689;50.954;7.116;2022-12-16T14:13:44;50.20;;;25.73;;
5333;SDS011;2689;50.954;7.116;2022-12-16T14:16:37;58.03;;;27.27;;
5333;SDS011;2689;50.954;7.116;2022-12-16T14:19:29;52.13;;;25.65;;
5333;SDS011;2689;50.954;7.116;2022-12-16T14:22:24;52.08;;;26.95;;
5333;SDS011;2689;50.954;7.116;2022-12-16T14:25:19;50.47;;;27.00;;
5333;SDS011;2689;50.954;7.116;2022-12-16T14:28:06;50.25;;;26.27;;
5333;SDS011;2689;50.954;7.116;2022-12-16T14:31:04;56.40;;;28.48;;
5333;SDS011;2689;50.954;7.116;2022-12-16T14:33:55;54.95;;;26.75;;
5333;SDS011;2689;50.954;7.116;2022-12-16T14:36:44;56.63;;;30.80;;
5333;SDS011;2689;50.954;7.116;2022-12-16T14:39:29;56.85;;;29.13;;
5333;SDS011;2689;50.954;7.116;2022-12-16T14:42:16;53.40;;;29.17;;
5333;SDS011;2689;50.954;7.116;2022-12-16T14:45:29;53.92;;;28.77;;
5333;SDS011;2689;50.954;7.116;2022-12-16T14:48:22;51.55;;;27.20;;
5333;SDS011;2689;50.954;7.116;2022-12-16T14:51:25;55.88;;;28.75;;
5333;SDS011;2689;50.954;7.116;2022-12-16T14:54:18;52.30;;;27.67;;
5333;SDS011;2689;50.954;7.116;2022-12-16T14:57:04;58.58;;;27.92;;
5333;SDS011;2689;50.954;7.116;2022-12-16T15:00:03;53.05;;;27.98;;
5333;SDS011;2689;50.954;7.116;2022-12-16T15:02:56;55.63;;;27.88;;
5333;SDS011;2689;50.954;7.116;2022-12-16T15:05:49;57.63;;;27.98;;
5333;SDS011;2689;50.954;7.116;2022-12-16T15:08:34;50.67;;;28.35;;
5333;SDS011;2689;50.954;7.116;2022-12-16T15:11:23;53.03;;;28.02;;
5333;SDS011;2689;50.954;7.116;2022-12-16T15:14:09;54.25;;;26.42;;
5333;SDS011;2689;50.954;7.116;2022-12-16T15:16:56;52.30;;;26.98;;
5333;SDS011;2689;50.954;7.116;2022-12-16T15:19:52;56.95;;;28.75;;
5333;SDS011;2689;50.954;7.116;2022-12-16T15:22:46;52.53;;;28.08;;
5333;SDS011;2689;50.954;7.116;2022-12-16T15:25:31;57.63;;;29.13;;
5333;SDS011;2689;50.954;7.116;2022-12-16T15:28:22;81.80;;;35.88;;
5333;SDS011;2689;50.954;7.116;2022-12-16T15:31:11;80.68;;;40.15;;
5333;SDS011;2689;50.954;7.116;2022-12-16T15:34:25;78.90;;;35.33;;
5333;SDS011;2689;50.954;7.116;2022-12-16T15:40:25;59.78;;;29.90;;
5333;SDS011;2689;50.954;7.116;2022-12-16T15:43:26;54.80;;;29.70;;
5333;SDS011;2689;50.954;7.116;2022-12-16T15:46:16;70.13;;;32.17;;
5333;SDS011;2689;50.954;7.116;2022-12-16T15:49:03;59.13;;;31.02;;
5333;SDS011;2689;50.954;7.116;2022-12-16T15:51:48;57.58;;;30.50;;
5333;SDS011;2689;50.954;7.116;2022-12-16T15:54:47;63.80;;;35.00;;
5333;SDS011;2689;50.954;7.116;2022-12-16T15:57:37;61.03;;;36.85;;
5333;SDS011;2689;50.954;7.116;2022-12-16T16:00:23;65.03;;;37.97;;
5333;SDS011;2689;50.954;7.116;2022-12-16T16:03:18;69.38;;;36.63;;
5333;SDS011;2689;50.954;7.116;2022-12-16T16:06:12;71.40;;;35.75;;
5333;SDS011;2689;50.954;7.116;2022-12-16T16:08:59;62.63;;;31.15;;
5333;SDS011;2689;50.954;7.116;2022-12-16T16:11:43;60.92;;;33.65;;
5333;SDS011;2689;50.954;7.116;2022-12-16T16:14:29;61.55;;;30.98;;
5333;SDS011;2689;50.954;7.116;2022-12-16T16:17:18;58.75;;;28.95;;
5333;SDS011;2689;50.954;7.116;2022-12-16T16:20:05;73.63;;;35.95;;
5333;SDS011;2689;50.954;7.116;2022-12-16T16:22:50;60.13;;;28.33;;
5333;SDS011;2689;50.954;7.116;2022-12-16T16:25:34;83.35;;;37.20;;
5333;SDS011;2689;50.954;7.116;2022-12-16T16:28:18;58.00;;;28.65;;
5333;SDS011;2689;50.954;7.116;2022-12-16T16:31:04;89.05;;;37.97;;
5333;SDS011;2689;50.954;7.116;2022-12-16T16:33:51;78.75;;;33.22;;
5333;SDS011;2689;50.954;7.116;2022-12-16T16:36:36;42.90;;;20.15;;
5333;SDS011;2689;50.954;7.116;2022-12-16T16:39:22;152.57;;;37.28;;
5333;SDS011;2689;50.954;7.116;2022-12-16T16:42:07;68.00;;;29.73;;
5333;SDS011;2689;50.954;7.116;2022-12-16T16:44:55;92.70;;;40.08;;
5333;SDS011;2689;50.954;7.116;2022-12-16T16:47:41;70.57;;;33.90;;